sensor_id;sensor_type;location;lat;lon;timestamp;P1;durP1;ratioP1;P2;durP2;ratioP2
19735;SDS011;32064;49.310;8.646;2024-01-27T00:00:20;5.73;;;3.90;;
19735;SDS011;32064;49.310;8.646;2024-01-27T00:02:46;6.33;;;3.50;;
19735;SDS011;32064;49.310;8.646;2024-01-27T00:05:11;5.43;;;2.93;;
19735;SDS011;32064;49.310;8.646;2024-01-27T00:07:37;5.27;;;3.90;;
19735;SDS011;32064;49.310;8.646;2024-01-27T00:10:02;4.93;;;3.20;;
19735;SDS011;32064;49.310;8.646;2024-01-27T00:12:28;7.33;;;3.10;;
19735;SDS011;32064;49.310;8.646;2024-01-27T00:14:53;6.00;;;3.63;;
19735;SDS011;32064;49.310;8.646;2024-01-27T00:17:19;3.67;;;3.07;;
19735;SDS011;32064;49.310;8.646;2024-01-27T00:19:49;4.23;;;3.20;;
19735;SDS011;32064;49.310;8.646;2024-01-27T00:22:17;3.23;;;2.93;;
19735;SDS011;32064;49.310;8.646;2024-01-27T00:24:43;3.40;;;3.10;;
19735;SDS011;32064;49.310;8.646;2024-01-27T00:27:08;4.10;;;3.13;;
19735;SDS011;32064;49.310;8.646;2024-01-27T00:29:36;3.27;;;2.53;;
19735;SDS011;32064;49.310;8.646;2024-01-27T00:32:01;3.83;;;2.93;;
19735;SDS011;32064;49.310;8.646;2024-01-27T00:34:27;2.73;;;2.47;;
19735;SDS011;32064;49.310;8.646;2024-01-27T00:36:52;2.47;;;2.27;;
19735;SDS011;32064;49.310;8.646;2024-01-27T00:39:18;3.43;;;2.50;;
19735;SDS011;32064;49.310;8.646;2024-01-27T00:41:44;2.87;;;2.43;;
19735;SDS011;32064;49.310;8.646;2024-01-27T00:44:09;4.10;;;2.63;;
19735;SDS011;32064;49.310;8.646;2024-01-27T00:46:38;4.00;;;2.47;;
19735;SDS011;32064;49.310;8.646;2024-01-27T00:49:04;2.60;;;2.40;;
19735;SDS011;32064;49.310;8.646;2024-01-27T00:51:30;4.23;;;3.17;;
19735;SDS011;32064;49.310;8.646;2024-01-27T00:53:55;2.50;;;2.30;;
19735;SDS011;32064;49.310;8.646;2024-01-27T00:56:21;3.03;;;2.30;;
19735;SDS011;32064;49.310;8.646;2024-01-27T00:58:46;3.10;;;2.80;;
19735;SDS011;32064;49.310;8.646;2024-01-27T01:01:12;5.17;;;2.97;;
19735;SDS011;32064;49.310;8.646;2024-01-27T01:03:37;3.20;;;2.03;;
19735;SDS011;32064;49.310;8.646;2024-01-27T01:06:03;2.23;;;2.03;;
19735;SDS011;32064;49.310;8.646;2024-01-27T01:08:28;2.70;;;2.47;;
19735;SDS011;32064;49.310;8.646;2024-01-27T01:10:54;4.73;;;3.23;;
19735;SDS011;32064;49.310;8.646;2024-01-27T01:13:19;4.23;;;2.83;;
19735;SDS011;32064;49.310;8.646;2024-01-27T01:15:44;2.50;;;2.30;;
19735;SDS011;32064;49.310;8.646;2024-01-27T01:18:10;3.50;;;2.50;;
19735;SDS011;32064;49.310;8.646;2024-01-27T01:20:35;3.17;;;2.63;;
19735;SDS011;32064;49.310;8.646;2024-01-27T01:23:00;8.27;;;3.33;;
19735;SDS011;32064;49.310;8.646;2024-01-27T01:25:26;4.77;;;3.03;;
19735;SDS011;32064;49.310;8.646;2024-01-27T01:27:51;2.33;;;2.13;;
19735;SDS011;32064;49.310;8.646;2024-01-27T01:30:17;3.47;;;2.67;;
19735;SDS011;32064;49.310;8.646;2024-01-27T01:32:43;6.67;;;2.93;;
19735;SDS011;32064;49.310;8.646;2024-01-27T01:35:10;3.43;;;3.10;;
19735;SDS011;32064;49.310;8.646;2024-01-27T01:37:35;4.20;;;2.73;;
19735;SDS011;32064;49.310;8.646;2024-01-27T01:40:00;3.83;;;3.33;;
19735;SDS011;32064;49.310;8.646;2024-01-27T01:42:27;2.93;;;2.40;;
19735;SDS011;32064;49.310;8.646;2024-01-27T01:44:54;4.43;;;2.93;;
19735;SDS011;32064;49.310;8.646;2024-01-27T01:47:20;3.40;;;2.57;;
19735;SDS011;32064;49.310;8.646;2024-01-27T01:49:47;3.97;;;2.70;;
19735;SDS011;32064;49.310;8.646;2024-01-27T01:52:13;2.33;;;2.13;;
19735;SDS011;32064;49.310;8.646;2024-01-27T01:54:44;3.77;;;2.43;;
19735;SDS011;32064;49.310;8.646;2024-01-27T01:57:13;6.67;;;3.33;;
19735;SDS011;32064;49.310;8.646;2024-01-27T01:59:39;4.20;;;2.70;;
19735;SDS011;32064;49.310;8.646;2024-01-27T02:02:06;3.53;;;2.53;;
19735;SDS011;32064;49.310;8.646;2024-01-27T02:04:39;4.83;;;2.20;;
19735;SDS011;32064;49.310;8.646;2024-01-27T02:07:07;3.60;;;2.87;;
19735;SDS011;32064;49.310;8.646;2024-01-27T02:09:33;4.60;;;2.43;;
19735;SDS011;32064;49.310;8.646;2024-01-27T02:11:58;4.13;;;2.43;;
19735;SDS011;32064;49.310;8.646;2024-01-27T02:14:24;2.57;;;2.37;;
19735;SDS011;32064;49.310;8.646;2024-01-27T02:16:52;7.67;;;3.07;;
19735;SDS011;32064;49.310;8.646;2024-01-27T02:19:18;2.50;;;2.20;;
19735;SDS011;32064;49.310;8.646;2024-01-27T02:21:43;3.50;;;2.37;;
19735;SDS011;32064;49.310;8.646;2024-01-27T02:24:09;2.70;;;2.50;;
19735;SDS011;32064;49.310;8.646;2024-01-27T02:26:35;2.10;;;1.90;;
19735;SDS011;32064;49.310;8.646;2024-01-27T02:29:00;3.20;;;2.70;;
19735;SDS011;32064;49.310;8.646;2024-01-27T02:31:26;3.23;;;1.93;;
19735;SDS011;32064;49.310;8.646;2024-01-27T02:33:52;2.57;;;2.37;;
19735;SDS011;32064;49.310;8.646;2024-01-27T02:36:17;2.97;;;2.33;;
19735;SDS011;32064;49.310;8.646;2024-01-27T02:38:42;2.10;;;1.97;;
19735;SDS011;32064;49.310;8.646;2024-01-27T02:41:09;2.43;;;2.00;;
19735;SDS011;32064;49.310;8.646;2024-01-27T02:43:36;2.57;;;2.17;;
19735;SDS011;32064;49.310;8.646;2024-01-27T02:46:01;2.77;;;2.20;;
19735;SDS011;32064;49.310;8.646;2024-01-27T02:48:26;2.87;;;2.27;;
19735;SDS011;32064;49.310;8.646;2024-01-27T02:50:52;2.57;;;2.37;;
19735;SDS011;32064;49.310;8.646;2024-01-27T02:53:17;6.13;;;2.70;;
19735;SDS011;32064;49.310;8.646;2024-01-27T02:55:43;2.43;;;2.23;;
19735;SDS011;32064;49.310;8.646;2024-01-27T02:58:08;2.63;;;2.43;;
19735;SDS011;32064;49.310;8.646;2024-01-27T03:00:34;2.73;;;2.10;;
19735;SDS011;32064;49.310;8.646;2024-01-27T03:02:59;3.33;;;2.10;;
19735;SDS011;32064;49.310;8.646;2024-01-27T03:05:24;2.03;;;1.93;;
19735;SDS011;32064;49.310;8.646;2024-01-27T03:07:50;2.93;;;2.70;;
19735;SDS011;32064;49.310;8.646;2024-01-27T03:10:15;3.07;;;2.60;;
19735;SDS011;32064;49.310;8.646;2024-01-27T03:12:41;4.27;;;2.73;;
19735;SDS011;32064;49.310;8.646;2024-01-27T03:15:06;3.57;;;2.40;;
19735;SDS011;32064;49.310;8.646;2024-01-27T03:17:33;4.07;;;3.27;;
19735;SDS011;32064;49.310;8.646;2024-01-27T03:19:58;2.20;;;2.00;;
19735;SDS011;32064;49.310;8.646;2024-01-27T03:22:24;2.57;;;2.40;;
19735;SDS011;32064;49.310;8.646;2024-01-27T03:24:49;5.80;;;1.80;;
19735;SDS011;32064;49.310;8.646;2024-01-27T03:27:16;2.60;;;2.13;;
19735;SDS011;32064;49.310;8.646;2024-01-27T03:29:42;3.73;;;2.13;;
19735;SDS011;32064;49.310;8.646;2024-01-27T03:32:07;3.57;;;2.37;;
19735;SDS011;32064;49.310;8.646;2024-01-27T03:34:32;8.07;;;2.57;;
19735;SDS011;32064;49.310;8.646;2024-01-27T03:36:58;3.67;;;2.57;;
19735;SDS011;32064;49.310;8.646;2024-01-27T03:39:23;2.57;;;2.37;;
19735;SDS011;32064;49.310;8.646;2024-01-27T03:41:49;4.47;;;2.97;;
19735;SDS011;32064;49.310;8.646;2024-01-27T03:44:14;2.80;;;2.57;;
19735;SDS011;32064;49.310;8.646;2024-01-27T03:46:39;4.43;;;2.90;;
19735;SDS011;32064;49.310;8.646;2024-01-27T03:49:05;3.63;;;2.03;;
19735;SDS011;32064;49.310;8.646;2024-01-27T03:51:30;2.50;;;2.10;;
19735;SDS011;32064;49.310;8.646;2024-01-27T03:53:55;3.33;;;2.33;;
19735;SDS011;32064;49.310;8.646;2024-01-27T03:56:21;2.90;;;2.30;;
19735;SDS011;32064;49.310;8.646;2024-01-27T03:58:46;6.10;;;2.33;;
19735;SDS011;32064;49.310;8.646;2024-01-27T04:01:11;16.87;;;2.53;;
19735;SDS011;32064;49.310;8.646;2024-01-27T04:03:37;4.50;;;2.60;;
19735;SDS011;32064;49.310;8.646;2024-01-27T04:06:02;2.27;;;2.07;;
19735;SDS011;32064;49.310;8.646;2024-01-27T04:08:29;3.17;;;2.60;;
19735;SDS011;32064;49.310;8.646;2024-01-27T04:10:55;3.80;;;2.27;;
19735;SDS011;32064;49.310;8.646;2024-01-27T04:13:21;1.97;;;1.83;;
19735;SDS011;32064;49.310;8.646;2024-01-27T04:15:46;1.80;;;1.70;;
19735;SDS011;32064;49.310;8.646;2024-01-27T04:18:12;2.13;;;1.90;;
19735;SDS011;32064;49.310;8.646;2024-01-27T04:20:37;1.53;;;1.40;;
19735;SDS011;32064;49.310;8.646;2024-01-27T04:23:03;2.50;;;2.17;;
19735;SDS011;32064;49.310;8.646;2024-01-27T04:25:29;2.00;;;1.90;;
19735;SDS011;32064;49.310;8.646;2024-01-27T04:27:54;3.03;;;2.03;;
19735;SDS011;32064;49.310;8.646;2024-01-27T04:30:20;2.53;;;1.97;;
19735;SDS011;32064;49.310;8.646;2024-01-27T04:32:45;2.73;;;1.97;;
19735;SDS011;32064;49.310;8.646;2024-01-27T04:35:11;2.77;;;2.30;;
19735;SDS011;32064;49.310;8.646;2024-01-27T04:37:37;4.20;;;2.60;;
19735;SDS011;32064;49.310;8.646;2024-01-27T04:40:06;3.70;;;2.50;;
19735;SDS011;32064;49.310;8.646;2024-01-27T04:42:33;1.90;;;1.80;;
19735;SDS011;32064;49.310;8.646;2024-01-27T04:44:59;2.37;;;2.03;;
19735;SDS011;32064;49.310;8.646;2024-01-27T04:47:25;2.40;;;2.20;;
19735;SDS011;32064;49.310;8.646;2024-01-27T04:49:50;4.97;;;1.90;;
19735;SDS011;32064;49.310;8.646;2024-01-27T04:52:16;8.07;;;2.57;;
19735;SDS011;32064;49.310;8.646;2024-01-27T04:54:41;2.73;;;2.10;;
19735;SDS011;32064;49.310;8.646;2024-01-27T04:57:06;2.23;;;2.03;;
19735;SDS011;32064;49.310;8.646;2024-01-27T04:59:32;2.43;;;2.03;;
19735;SDS011;32064;49.310;8.646;2024-01-27T05:01:57;1.93;;;1.83;;
19735;SDS011;32064;49.310;8.646;2024-01-27T05:04:23;2.77;;;1.83;;
19735;SDS011;32064;49.310;8.646;2024-01-27T05:06:51;3.33;;;2.67;;
19735;SDS011;32064;49.310;8.646;2024-01-27T05:09:17;2.00;;;1.90;;
19735;SDS011;32064;49.310;8.646;2024-01-27T05:11:42;3.57;;;2.50;;
19735;SDS011;32064;49.310;8.646;2024-01-27T05:14:10;1.67;;;1.57;;
19735;SDS011;32064;49.310;8.646;2024-01-27T05:16:36;1.70;;;1.60;;
19735;SDS011;32064;49.310;8.646;2024-01-27T05:19:01;1.93;;;1.73;;
19735;SDS011;32064;49.310;8.646;2024-01-27T05:21:26;2.40;;;2.00;;
19735;SDS011;32064;49.310;8.646;2024-01-27T05:23:52;1.63;;;1.53;;
19735;SDS011;32064;49.310;8.646;2024-01-27T05:26:17;7.77;;;2.00;;
19735;SDS011;32064;49.310;8.646;2024-01-27T05:28:43;2.50;;;2.03;;
19735;SDS011;32064;49.310;8.646;2024-01-27T05:31:09;2.33;;;2.13;;
19735;SDS011;32064;49.310;8.646;2024-01-27T05:33:35;2.20;;;2.07;;
19735;SDS011;32064;49.310;8.646;2024-01-27T05:36:00;5.23;;;2.73;;
19735;SDS011;32064;49.310;8.646;2024-01-27T05:38:26;11.37;;;2.50;;
19735;SDS011;32064;49.310;8.646;2024-01-27T05:40:53;2.33;;;2.13;;
19735;SDS011;32064;49.310;8.646;2024-01-27T05:43:18;4.10;;;2.53;;
19735;SDS011;32064;49.310;8.646;2024-01-27T05:45:44;3.87;;;2.73;;
19735;SDS011;32064;49.310;8.646;2024-01-27T05:48:10;2.03;;;1.93;;
19735;SDS011;32064;49.310;8.646;2024-01-27T05:50:35;3.40;;;2.23;;
19735;SDS011;32064;49.310;8.646;2024-01-27T05:53:01;2.70;;;1.80;;
19735;SDS011;32064;49.310;8.646;2024-01-27T05:55:26;1.87;;;1.63;;
19735;SDS011;32064;49.310;8.646;2024-01-27T05:57:52;3.17;;;1.87;;
19735;SDS011;32064;49.310;8.646;2024-01-27T06:00:17;3.90;;;2.00;;
19735;SDS011;32064;49.310;8.646;2024-01-27T06:02:47;2.17;;;1.53;;
19735;SDS011;32064;49.310;8.646;2024-01-27T06:05:12;2.40;;;1.80;;
19735;SDS011;32064;49.310;8.646;2024-01-27T06:07:38;2.40;;;2.20;;
19735;SDS011;32064;49.310;8.646;2024-01-27T06:10:05;2.43;;;2.20;;
19735;SDS011;32064;49.310;8.646;2024-01-27T06:12:33;1.60;;;1.50;;
19735;SDS011;32064;49.310;8.646;2024-01-27T06:14:58;2.90;;;2.17;;
19735;SDS011;32064;49.310;8.646;2024-01-27T06:17:24;2.73;;;1.90;;
19735;SDS011;32064;49.310;8.646;2024-01-27T06:19:49;2.00;;;1.80;;
19735;SDS011;32064;49.310;8.646;2024-01-27T06:22:14;3.77;;;1.87;;
19735;SDS011;32064;49.310;8.646;2024-01-27T06:24:43;2.03;;;1.83;;
19735;SDS011;32064;49.310;8.646;2024-01-27T06:27:11;4.60;;;1.73;;
19735;SDS011;32064;49.310;8.646;2024-01-27T06:29:36;6.80;;;2.60;;
19735;SDS011;32064;49.310;8.646;2024-01-27T06:32:02;3.17;;;1.90;;
19735;SDS011;32064;49.310;8.646;2024-01-27T06:34:28;2.20;;;1.97;;
19735;SDS011;32064;49.310;8.646;2024-01-27T06:36:53;1.50;;;1.40;;
19735;SDS011;32064;49.310;8.646;2024-01-27T06:39:19;3.10;;;2.10;;
19735;SDS011;32064;49.310;8.646;2024-01-27T06:41:46;2.13;;;1.93;;
19735;SDS011;32064;49.310;8.646;2024-01-27T06:44:12;2.67;;;1.80;;
19735;SDS011;32064;49.310;8.646;2024-01-27T06:46:38;5.00;;;3.00;;
19735;SDS011;32064;49.310;8.646;2024-01-27T06:49:03;2.40;;;2.17;;
19735;SDS011;32064;49.310;8.646;2024-01-27T06:51:28;2.40;;;2.20;;
19735;SDS011;32064;49.310;8.646;2024-01-27T06:53:54;4.70;;;3.03;;
19735;SDS011;32064;49.310;8.646;2024-01-27T06:56:19;7.83;;;4.57;;
19735;SDS011;32064;49.310;8.646;2024-01-27T06:58:44;11.57;;;3.50;;
19735;SDS011;32064;49.310;8.646;2024-01-27T07:01:10;2.37;;;2.17;;
19735;SDS011;32064;49.310;8.646;2024-01-27T07:03:35;3.33;;;3.03;;
19735;SDS011;32064;49.310;8.646;2024-01-27T07:06:01;3.20;;;2.80;;
19735;SDS011;32064;49.310;8.646;2024-01-27T07:08:26;8.10;;;3.50;;
19735;SDS011;32064;49.310;8.646;2024-01-27T07:10:52;6.87;;;3.83;;
19735;SDS011;32064;49.310;8.646;2024-01-27T07:13:17;4.60;;;2.90;;
19735;SDS011;32064;49.310;8.646;2024-01-27T07:15:42;4.83;;;3.10;;
19735;SDS011;32064;49.310;8.646;2024-01-27T07:18:08;5.57;;;2.63;;
19735;SDS011;32064;49.310;8.646;2024-01-27T07:20:34;3.37;;;2.43;;
19735;SDS011;32064;49.310;8.646;2024-01-27T07:23:00;2.20;;;2.00;;
19735;SDS011;32064;49.310;8.646;2024-01-27T07:25:26;6.10;;;2.27;;
19735;SDS011;32064;49.310;8.646;2024-01-27T07:27:53;3.03;;;2.33;;
19735;SDS011;32064;49.310;8.646;2024-01-27T07:30:18;3.30;;;2.47;;
19735;SDS011;32064;49.310;8.646;2024-01-27T07:32:44;8.27;;;2.47;;
19735;SDS011;32064;49.310;8.646;2024-01-27T07:35:09;2.07;;;1.97;;
19735;SDS011;32064;49.310;8.646;2024-01-27T07:37:35;2.10;;;1.80;;
19735;SDS011;32064;49.310;8.646;2024-01-27T07:40:00;2.17;;;2.03;;
19735;SDS011;32064;49.310;8.646;2024-01-27T07:42:25;2.57;;;2.13;;
19735;SDS011;32064;49.310;8.646;2024-01-27T07:44:51;1.50;;;1.40;;
19735;SDS011;32064;49.310;8.646;2024-01-27T07:47:16;2.30;;;2.03;;
19735;SDS011;32064;49.310;8.646;2024-01-27T07:49:41;8.43;;;2.47;;
19735;SDS011;32064;49.310;8.646;2024-01-27T07:52:07;2.90;;;2.27;;
19735;SDS011;32064;49.310;8.646;2024-01-27T07:54:33;3.57;;;2.10;;
19735;SDS011;32064;49.310;8.646;2024-01-27T07:57:03;2.30;;;2.03;;
19735;SDS011;32064;49.310;8.646;2024-01-27T07:59:29;2.37;;;1.90;;
19735;SDS011;32064;49.310;8.646;2024-01-27T08:01:55;1.80;;;1.60;;
19735;SDS011;32064;49.310;8.646;2024-01-27T08:04:21;2.20;;;2.00;;
19735;SDS011;32064;49.310;8.646;2024-01-27T08:06:47;3.00;;;2.17;;
19735;SDS011;32064;49.310;8.646;2024-01-27T08:09:13;1.60;;;1.50;;
19735;SDS011;32064;49.310;8.646;2024-01-27T08:11:39;2.53;;;2.33;;
19735;SDS011;32064;49.310;8.646;2024-01-27T08:14:04;3.87;;;2.50;;
19735;SDS011;32064;49.310;8.646;2024-01-27T08:16:30;3.87;;;1.70;;
19735;SDS011;32064;49.310;8.646;2024-01-27T08:18:55;1.33;;;1.23;;
19735;SDS011;32064;49.310;8.646;2024-01-27T08:21:21;1.60;;;1.50;;
19735;SDS011;32064;49.310;8.646;2024-01-27T08:23:46;4.53;;;2.50;;
19735;SDS011;32064;49.310;8.646;2024-01-27T08:26:11;1.83;;;1.67;;
19735;SDS011;32064;49.310;8.646;2024-01-27T08:28:37;4.40;;;2.27;;
19735;SDS011;32064;49.310;8.646;2024-01-27T08:31:02;3.00;;;2.03;;
19735;SDS011;32064;49.310;8.646;2024-01-27T08:33:28;2.10;;;1.90;;
19735;SDS011;32064;49.310;8.646;2024-01-27T08:35:54;2.17;;;1.67;;
19735;SDS011;32064;49.310;8.646;2024-01-27T08:38:19;1.37;;;1.27;;
19735;SDS011;32064;49.310;8.646;2024-01-27T08:40:44;5.43;;;1.77;;
19735;SDS011;32064;49.310;8.646;2024-01-27T08:43:10;1.63;;;1.13;;
19735;SDS011;32064;49.310;8.646;2024-01-27T08:45:36;2.67;;;1.57;;
19735;SDS011;32064;49.310;8.646;2024-01-27T08:48:03;2.63;;;1.63;;
19735;SDS011;32064;49.310;8.646;2024-01-27T08:50:28;2.20;;;1.23;;
19735;SDS011;32064;49.310;8.646;2024-01-27T08:52:54;2.27;;;1.33;;
19735;SDS011;32064;49.310;8.646;2024-01-27T08:55:19;2.63;;;1.50;;
19735;SDS011;32064;49.310;8.646;2024-01-27T08:57:46;1.50;;;1.40;;
19735;SDS011;32064;49.310;8.646;2024-01-27T09:00:11;3.93;;;1.53;;
19735;SDS011;32064;49.310;8.646;2024-01-27T09:02:38;1.37;;;1.20;;
19735;SDS011;32064;49.310;8.646;2024-01-27T09:05:03;8.47;;;1.50;;
19735;SDS011;32064;49.310;8.646;2024-01-27T09:07:30;1.10;;;1.10;;
19735;SDS011;32064;49.310;8.646;2024-01-27T09:09:55;3.83;;;2.30;;
19735;SDS011;32064;49.310;8.646;2024-01-27T09:12:21;4.17;;;2.47;;
19735;SDS011;32064;49.310;8.646;2024-01-27T09:14:46;2.23;;;2.03;;
19735;SDS011;32064;49.310;8.646;2024-01-27T09:17:12;2.77;;;1.53;;
19735;SDS011;32064;49.310;8.646;2024-01-27T09:19:37;1.33;;;1.23;;
19735;SDS011;32064;49.310;8.646;2024-01-27T09:22:03;3.17;;;1.80;;
19735;SDS011;32064;49.310;8.646;2024-01-27T09:24:28;2.80;;;1.73;;
19735;SDS011;32064;49.310;8.646;2024-01-27T09:26:53;2.90;;;1.80;;
19735;SDS011;32064;49.310;8.646;2024-01-27T09:29:19;2.63;;;1.33;;
19735;SDS011;32064;49.310;8.646;2024-01-27T09:31:45;3.20;;;1.53;;
19735;SDS011;32064;49.310;8.646;2024-01-27T09:34:10;2.53;;;1.87;;
19735;SDS011;32064;49.310;8.646;2024-01-27T09:36:36;7.30;;;1.77;;
19735;SDS011;32064;49.310;8.646;2024-01-27T09:39:01;1.63;;;1.47;;
19735;SDS011;32064;49.310;8.646;2024-01-27T09:41:29;1.30;;;1.20;;
19735;SDS011;32064;49.310;8.646;2024-01-27T09:44:02;2.77;;;1.70;;
19735;SDS011;32064;49.310;8.646;2024-01-27T09:46:29;1.03;;;1.03;;
19735;SDS011;32064;49.310;8.646;2024-01-27T09:48:55;9.67;;;1.30;;
19735;SDS011;32064;49.310;8.646;2024-01-27T09:51:21;1.33;;;1.23;;
19735;SDS011;32064;49.310;8.646;2024-01-27T09:53:47;1.10;;;1.00;;
19735;SDS011;32064;49.310;8.646;2024-01-27T09:56:12;1.77;;;1.27;;
19735;SDS011;32064;49.310;8.646;2024-01-27T09:58:43;1.75;;;1.60;;
19735;SDS011;32064;49.310;8.646;2024-01-27T10:01:09;4.68;;;1.77;;
19735;SDS011;32064;49.310;8.646;2024-01-27T10:03:36;4.55;;;1.90;;
19735;SDS011;32064;49.310;8.646;2024-01-27T10:06:04;2.88;;;1.60;;
19735;SDS011;32064;49.310;8.646;2024-01-27T10:08:33;2.67;;;1.55;;
19735;SDS011;32064;49.310;8.646;2024-01-27T10:10:59;1.98;;;1.77;;
19735;SDS011;32064;49.310;8.646;2024-01-27T10:13:24;3.20;;;1.50;;
19735;SDS011;32064;49.310;8.646;2024-01-27T10:16:02;2.38;;;1.60;;
19735;SDS011;32064;49.310;8.646;2024-01-27T10:18:32;2.30;;;1.50;;
19735;SDS011;32064;49.310;8.646;2024-01-27T10:20:58;2.65;;;1.50;;
19735;SDS011;32064;49.310;8.646;2024-01-27T10:23:24;5.30;;;1.25;;
19735;SDS011;32064;49.310;8.646;2024-01-27T10:25:50;8.73;;;1.60;;
19735;SDS011;32064;49.310;8.646;2024-01-27T10:28:16;2.97;;;1.58;;
19735;SDS011;32064;49.310;8.646;2024-01-27T10:30:42;3.53;;;1.50;;
19735;SDS011;32064;49.310;8.646;2024-01-27T10:33:08;3.15;;;1.63;;
19735;SDS011;32064;49.310;8.646;2024-01-27T10:35:40;4.07;;;1.60;;
19735;SDS011;32064;49.310;8.646;2024-01-27T10:38:06;1.63;;;1.45;;
19735;SDS011;32064;49.310;8.646;2024-01-27T10:40:32;1.95;;;1.35;;
19735;SDS011;32064;49.310;8.646;2024-01-27T10:45:26;4.25;;;1.65;;
19735;SDS011;32064;49.310;8.646;2024-01-27T10:47:52;2.42;;;1.77;;
19735;SDS011;32064;49.310;8.646;2024-01-27T10:50:26;2.97;;;1.60;;
19735;SDS011;32064;49.310;8.646;2024-01-27T10:52:51;1.92;;;1.50;;
19735;SDS011;32064;49.310;8.646;2024-01-27T10:55:18;1.37;;;1.07;;
19735;SDS011;32064;49.310;8.646;2024-01-27T10:57:44;1.80;;;1.40;;
19735;SDS011;32064;49.310;8.646;2024-01-27T11:00:12;2.03;;;1.50;;
19735;SDS011;32064;49.310;8.646;2024-01-27T11:02:40;7.73;;;1.53;;
19735;SDS011;32064;49.310;8.646;2024-01-27T11:05:07;3.00;;;1.30;;
19735;SDS011;32064;49.310;8.646;2024-01-27T11:07:35;1.43;;;1.33;;
19735;SDS011;32064;49.310;8.646;2024-01-27T11:10:03;3.53;;;2.07;;
19735;SDS011;32064;49.310;8.646;2024-01-27T11:12:29;2.23;;;1.80;;
19735;SDS011;32064;49.310;8.646;2024-01-27T11:14:55;0.90;;;0.90;;
19735;SDS011;32064;49.310;8.646;2024-01-27T11:17:23;2.63;;;1.93;;
19735;SDS011;32064;49.310;8.646;2024-01-27T11:19:49;7.13;;;1.90;;
19735;SDS011;32064;49.310;8.646;2024-01-27T11:22:25;2.57;;;1.67;;
19735;SDS011;32064;49.310;8.646;2024-01-27T11:24:52;2.33;;;1.37;;
19735;SDS011;32064;49.310;8.646;2024-01-27T11:27:39;1.87;;;1.40;;
19735;SDS011;32064;49.310;8.646;2024-01-27T11:30:05;1.67;;;1.57;;
19735;SDS011;32064;49.310;8.646;2024-01-27T11:32:37;2.60;;;1.70;;
19735;SDS011;32064;49.310;8.646;2024-01-27T11:35:02;3.70;;;1.80;;
19735;SDS011;32064;49.310;8.646;2024-01-27T11:37:30;2.07;;;1.63;;
19735;SDS011;32064;49.310;8.646;2024-01-27T11:40:05;1.60;;;1.50;;
19735;SDS011;32064;49.310;8.646;2024-01-27T11:42:32;2.97;;;1.87;;
19735;SDS011;32064;49.310;8.646;2024-01-27T11:44:57;11.13;;;2.00;;
19735;SDS011;32064;49.310;8.646;2024-01-27T11:47:23;1.90;;;1.47;;
19735;SDS011;32064;49.310;8.646;2024-01-27T11:49:54;1.43;;;1.33;;
19735;SDS011;32064;49.310;8.646;2024-01-27T11:52:22;2.10;;;1.63;;
19735;SDS011;32064;49.310;8.646;2024-01-27T11:54:57;1.50;;;1.20;;
19735;SDS011;32064;49.310;8.646;2024-01-27T11:57:24;1.10;;;1.03;;
19735;SDS011;32064;49.310;8.646;2024-01-27T11:59:50;15.67;;;1.87;;
19735;SDS011;32064;49.310;8.646;2024-01-27T12:02:16;6.53;;;1.80;;
19735;SDS011;32064;49.310;8.646;2024-01-27T12:04:42;2.43;;;1.80;;
19735;SDS011;32064;49.310;8.646;2024-01-27T12:07:07;5.87;;;1.73;;
19735;SDS011;32064;49.310;8.646;2024-01-27T12:09:35;4.87;;;1.80;;
19735;SDS011;32064;49.310;8.646;2024-01-27T12:12:01;2.53;;;1.47;;
19735;SDS011;32064;49.310;8.646;2024-01-27T12:14:37;3.13;;;1.27;;
19735;SDS011;32064;49.310;8.646;2024-01-27T12:17:03;2.97;;;1.20;;
19735;SDS011;32064;49.310;8.646;2024-01-27T12:19:29;3.00;;;1.47;;
19735;SDS011;32064;49.310;8.646;2024-01-27T12:21:55;2.63;;;1.20;;
19735;SDS011;32064;49.310;8.646;2024-01-27T12:24:20;1.30;;;1.20;;
19735;SDS011;32064;49.310;8.646;2024-01-27T12:26:45;2.00;;;1.40;;
19735;SDS011;32064;49.310;8.646;2024-01-27T12:29:11;2.03;;;1.60;;
19735;SDS011;32064;49.310;8.646;2024-01-27T12:31:36;4.30;;;1.63;;
19735;SDS011;32064;49.310;8.646;2024-01-27T12:34:02;4.40;;;1.27;;
19735;SDS011;32064;49.310;8.646;2024-01-27T12:36:28;7.33;;;1.57;;
19735;SDS011;32064;49.310;8.646;2024-01-27T12:38:54;1.37;;;1.23;;
19735;SDS011;32064;49.310;8.646;2024-01-27T12:41:20;4.10;;;1.63;;
19735;SDS011;32064;49.310;8.646;2024-01-27T12:43:45;2.97;;;1.40;;
19735;SDS011;32064;49.310;8.646;2024-01-27T12:46:11;1.17;;;1.07;;
19735;SDS011;32064;49.310;8.646;2024-01-27T12:48:37;1.90;;;1.30;;
19735;SDS011;32064;49.310;8.646;2024-01-27T12:51:04;4.23;;;1.73;;
19735;SDS011;32064;49.310;8.646;2024-01-27T12:53:29;2.13;;;1.53;;
19735;SDS011;32064;49.310;8.646;2024-01-27T12:55:55;2.20;;;1.50;;
19735;SDS011;32064;49.310;8.646;2024-01-27T12:58:21;3.07;;;1.47;;
19735;SDS011;32064;49.310;8.646;2024-01-27T13:00:46;9.30;;;1.77;;
19735;SDS011;32064;49.310;8.646;2024-01-27T13:03:12;5.87;;;1.83;;
19735;SDS011;32064;49.310;8.646;2024-01-27T13:05:37;2.77;;;1.47;;
19735;SDS011;32064;49.310;8.646;2024-01-27T13:08:03;2.30;;;1.73;;
19735;SDS011;32064;49.310;8.646;2024-01-27T13:10:29;2.97;;;1.70;;
19735;SDS011;32064;49.310;8.646;2024-01-27T13:12:55;2.93;;;2.13;;
19735;SDS011;32064;49.310;8.646;2024-01-27T13:15:21;4.00;;;1.23;;
19735;SDS011;32064;49.310;8.646;2024-01-27T13:17:48;8.57;;;2.23;;
19735;SDS011;32064;49.310;8.646;2024-01-27T13:20:14;7.27;;;2.43;;
19735;SDS011;32064;49.310;8.646;2024-01-27T13:22:39;3.77;;;2.17;;
19735;SDS011;32064;49.310;8.646;2024-01-27T13:25:05;1.43;;;1.30;;
19735;SDS011;32064;49.310;8.646;2024-01-27T13:27:31;2.90;;;1.40;;
19735;SDS011;32064;49.310;8.646;2024-01-27T13:29:56;6.73;;;1.60;;
19735;SDS011;32064;49.310;8.646;2024-01-27T13:32:21;2.73;;;1.30;;
19735;SDS011;32064;49.310;8.646;2024-01-27T13:34:47;1.80;;;1.30;;
19735;SDS011;32064;49.310;8.646;2024-01-27T13:37:12;4.60;;;1.43;;
19735;SDS011;32064;49.310;8.646;2024-01-27T13:39:41;1.63;;;1.53;;
19735;SDS011;32064;49.310;8.646;2024-01-27T13:42:06;0.80;;;0.80;;
19735;SDS011;32064;49.310;8.646;2024-01-27T13:44:32;1.23;;;1.13;;
19735;SDS011;32064;49.310;8.646;2024-01-27T13:47:01;0.77;;;0.77;;
19735;SDS011;32064;49.310;8.646;2024-01-27T13:49:27;1.07;;;0.90;;
19735;SDS011;32064;49.310;8.646;2024-01-27T13:51:53;2.63;;;1.20;;
19735;SDS011;32064;49.310;8.646;2024-01-27T13:54:18;4.83;;;1.50;;
19735;SDS011;32064;49.310;8.646;2024-01-27T13:56:43;3.50;;;1.27;;
19735;SDS011;32064;49.310;8.646;2024-01-27T13:59:10;2.07;;;1.20;;
19735;SDS011;32064;49.310;8.646;2024-01-27T14:01:36;1.37;;;1.27;;
19735;SDS011;32064;49.310;8.646;2024-01-27T14:04:01;3.90;;;1.47;;
19735;SDS011;32064;49.310;8.646;2024-01-27T14:06:27;1.10;;;1.00;;
19735;SDS011;32064;49.310;8.646;2024-01-27T14:08:52;2.03;;;1.07;;
19735;SDS011;32064;49.310;8.646;2024-01-27T14:11:18;0.70;;;0.70;;
19735;SDS011;32064;49.310;8.646;2024-01-27T14:13:44;1.93;;;1.40;;
19735;SDS011;32064;49.310;8.646;2024-01-27T14:16:09;2.67;;;1.43;;
19735;SDS011;32064;49.310;8.646;2024-01-27T14:18:35;1.33;;;0.90;;
19735;SDS011;32064;49.310;8.646;2024-01-27T14:21:00;1.80;;;1.17;;
19735;SDS011;32064;49.310;8.646;2024-01-27T14:23:26;1.47;;;1.10;;
19735;SDS011;32064;49.310;8.646;2024-01-27T14:25:51;1.13;;;0.93;;
19735;SDS011;32064;49.310;8.646;2024-01-27T14:28:17;1.00;;;0.90;;
19735;SDS011;32064;49.310;8.646;2024-01-27T14:30:42;3.43;;;1.30;;
19735;SDS011;32064;49.310;8.646;2024-01-27T14:33:09;1.03;;;0.90;;
19735;SDS011;32064;49.310;8.646;2024-01-27T14:35:35;1.10;;;1.00;;
19735;SDS011;32064;49.310;8.646;2024-01-27T14:38:01;1.17;;;0.90;;
19735;SDS011;32064;49.310;8.646;2024-01-27T14:40:27;1.00;;;0.90;;
19735;SDS011;32064;49.310;8.646;2024-01-27T14:42:52;0.90;;;0.73;;